Time;durP1;ratioP1;P1;durP2;ratioP2;P2;SDS_P1;SDS_P2;PMS_P1;PMS_P2;Temp;Humidity;BMP_temperature;BMP_pressure;BME280_temperature;BME280_humidity;BME280_pressure;Samples;Min_cycle;Max_cycle;Signal;HPM_P1;HPM_P2
2022/06/29 00:01:29;;;;;;;0.00;0.00;;;15.90;99.90;;;;;;5116448;28;20089;-80
2022/06/29 00:03:55;;;;;;;0.00;0.00;;;15.90;99.90;;;;;;5116327;28;20196;-80
2022/06/29 00:06:21;;;;;;;0.00;0.00;;;15.90;99.90;;;;;;5099289;28;20051;-80
2022/06/29 00:08:46;;;;;;;0.00;0.00;;;15.80;99.90;;;;;;5116321;28;20135;-80
2022/06/29 00:11:12;;;;;;;0.00;0.00;;;15.90;99.90;;;;;;5116433;28;20039;-80
2022/06/29 00:13:38;;;;;;;0.00;0.00;;;15.80;99.90;;;;;;5117075;28;20483;-80
2022/06/29 00:16:03;;;;;;;0.00;0.00;;;15.80;99.90;;;;;;5099438;28;20096;-80
2022/06/29 00:18:29;;;;;;;0.00;0.00;;;15.80;99.90;;;;;;5098353;28;20454;-80
2022/06/29 00:20:55;;;;;;;0.00;0.00;;;15.80;99.90;;;;;;5116400;28;20051;-80
2022/06/29 00:23:20;;;;;;;0.00;0.00;;;15.70;99.90;;;;;;5117589;27;20078;-79
2022/06/29 00:25:46;;;;;;;0.00;0.00;;;15.70;99.90;;;;;;5120727;27;20035;-80
2022/06/29 00:28:12;;;;;;;0.00;0.00;;;15.70;99.90;;;;;;5103183;27;20043;-79
2022/06/29 00:30:37;;;;;;;0.00;0.00;;;15.50;99.90;;;;;;5103486;27;20041;-79
2022/06/29 00:33:03;;;;;;;0.00;0.00;;;15.60;99.90;;;;;;5120460;27;20498;-79
2022/06/29 00:35:29;;;;;;;0.20;0.10;;;15.50;99.90;;;;;;5120303;27;20055;-80
2022/06/29 00:37:54;;;;;;;0.00;0.00;;;15.50;99.90;;;;;;5102752;27;20099;-79
2022/06/29 00:40:20;;;;;;;0.03;0.03;;;15.40;99.90;;;;;;5120654;27;20043;-80
2022/06/29 00:42:46;;;;;;;0.08;0.08;;;15.40;99.90;;;;;;5102817;27;20386;-79
2022/06/29 00:45:11;;;;;;;0.00;0.00;;;15.40;99.90;;;;;;5120257;27;20042;-80
2022/06/29 00:47:37;;;;;;;0.00;0.00;;;15.40;99.90;;;;;;5120026;27;20061;-79
2022/06/29 00:50:03;;;;;;;0.00;0.00;;;15.40;99.90;;;;;;5120055;27;20042;-79
2022/06/29 00:52:32;;;;;;;0.00;0.00;;;15.30;99.90;;;;;;5119924;27;20059;-79
2022/06/29 00:55:03;;;;;;;0.00;0.00;;;15.30;99.90;;;;;;5119884;27;20093;-79
2022/06/29 00:57:30;;;;;;;0.00;0.00;;;15.30;99.90;;;;;;5102046;27;20428;-79
2022/06/29 00:59:58;;;;;;;0.00;0.00;;;15.30;99.90;;;;;;5119423;27;20047;-79
2022/06/29 01:02:26;;;;;;;0.28;0.00;;;15.30;99.90;;;;;;5119791;27;20047;-79
2022/06/29 01:04:52;;;;;;;0.00;0.00;;;15.20;99.90;;;;;;5119732;27;20046;-79
2022/06/29 01:07:21;;;;;;;0.00;0.00;;;15.20;99.90;;;;;;5102724;27;20153;-79
2022/06/29 01:09:47;;;;;;;0.00;0.00;;;15.20;99.90;;;;;;5102603;27;20521;-79
2022/06/29 01:12:14;;;;;;;0.20;0.20;;;15.20;99.90;;;;;;5102991;27;20071;-79
2022/06/29 01:14:45;;;;;;;0.00;0.00;;;15.20;99.90;;;;;;5102528;27;20051;-79
2022/06/29 01:17:11;;;;;;;0.00;0.00;;;15.20;99.90;;;;;;5102324;27;20130;-79
2022/06/29 01:19:38;;;;;;;0.75;0.10;;;15.10;99.90;;;;;;5119151;27;20051;-79
2022/06/29 01:22:26;;;;;;;0.00;0.00;;;15.10;99.90;;;;;;5119019;27;20605;-79
2022/06/29 01:24:51;;;;;;;0.00;0.00;;;15.10;99.90;;;;;;5137890;27;20100;-79
2022/06/29 01:27:18;;;;;;;0.00;0.00;;;15.10;99.90;;;;;;5136554;27;20035;-79
2022/06/29 01:29:44;;;;;;;0.00;0.00;;;15.10;99.90;;;;;;5119125;27;20047;-79
2022/06/29 01:32:10;;;;;;;0.00;0.00;;;15.00;99.90;;;;;;5119084;27;20127;-79
2022/06/29 01:34:37;;;;;;;0.00;0.00;;;15.00;99.90;;;;;;5135608;27;20082;-79
2022/06/29 01:37:03;;;;;;;0.00;0.00;;;15.00;99.90;;;;;;5101943;27;20062;-79
2022/06/29 01:39:30;;;;;;;0.00;0.00;;;15.00;99.90;;;;;;5119358;27;20368;-79
2022/06/29 01:41:56;;;;;;;0.00;0.00;;;15.00;99.90;;;;;;5101897;27;20050;-79
2022/06/29 01:44:22;;;;;;;0.00;0.00;;;15.00;99.90;;;;;;5118608;27;20428;-79
2022/06/29 01:46:48;;;;;;;0.57;0.10;;;14.90;99.90;;;;;;5118695;27;20039;-79
2022/06/29 01:49:14;;;;;;;0.00;0.00;;;14.90;99.90;;;;;;5118790;27;20065;-79
2022/06/29 01:51:40;;;;;;;0.00;0.00;;;14.90;99.90;;;;;;5118616;27;20050;-79
2022/06/29 01:54:06;;;;;;;0.00;0.00;;;14.90;99.90;;;;;;5119193;27;20475;-79
2022/06/29 01:56:32;;;;;;;0.00;0.00;;;14.90;99.90;;;;;;5118379;27;20483;-79
2022/06/29 01:58:57;;;;;;;0.00;0.00;;;14.90;99.90;;;;;;5118698;27;20516;-79
2022/06/29 02:01:23;;;;;;;0.00;0.00;;;14.80;99.90;;;;;;5118114;27;20138;-79
2022/06/29 02:03:50;;;;;;;0.00;0.00;;;14.80;99.90;;;;;;5118329;27;20043;-79
2022/06/29 02:06:15;;;;;;;0.00;0.00;;;14.90;99.90;;;;;;5118628;27;20044;-79
2022/06/29 02:08:41;;;;;;;0.00;0.00;;;14.80;99.90;;;;;;5118357;27;20144;-79
2022/06/29 02:11:07;;;;;;;0.00;0.00;;;14.80;99.90;;;;;;5100802;27;20058;-79
2022/06/29 02:13:32;;;;;;;0.00;0.00;;;14.80;99.90;;;;;;5118283;27;20062;-79
2022/06/29 02:15:58;;;;;;;0.00;0.00;;;14.80;99.90;;;;;;5118185;27;20103;-79
2022/06/29 02:18:23;;;;;;;0.00;0.00;;;14.70;99.90;;;;;;5118176;27;20039;-78
2022/06/29 02:20:49;;;;;;;0.00;0.00;;;14.70;99.90;;;;;;5100701;27;20066;-79
2022/06/29 02:23:15;;;;;;;0.00;0.00;;;14.70;99.90;;;;;;5100624;27;20402;-79
2022/06/29 02:25:41;;;;;;;0.00;0.00;;;14.70;99.90;;;;;;5118021;27;20371;-79
2022/06/29 02:28:06;;;;;;;0.00;0.00;;;14.70;99.90;;;;;;5118042;27;20099;-79
2022/06/29 02:36:00;;;;;;;0.00;0.00;;;14.60;99.90;;;;;;5117991;27;20402;-79
2022/06/29 02:38:26;;;;;;;0.00;0.00;;;14.50;99.90;;;;;;5117553;27;20043;-79
2022/06/29 02:40:52;;;;;;;0.08;0.08;;;14.50;99.90;;;;;;5100513;27;20089;-79
2022/06/29 02:43:17;;;;;;;0.00;0.00;;;14.40;99.90;;;;;;5118250;27;20039;-79
2022/06/29 02:45:43;;;;;;;0.00;0.00;;;14.40;99.90;;;;;;5116709;27;20039;-79
2022/06/29 02:48:09;;;;;;;0.00;0.00;;;14.40;99.90;;;;;;5100305;27;20469;-79
2022/06/29 02:50:35;;;;;;;0.00;0.00;;;14.40;99.90;;;;;;5100500;27;20046;-79
2022/06/29 02:53:01;;;;;;;0.00;0.00;;;14.40;99.90;;;;;;5100621;27;20490;-79
2022/06/29 02:55:26;;;;;;;0.00;0.00;;;14.40;99.90;;;;;;5100378;27;20047;-79
2022/06/29 02:57:52;;;;;;;0.00;0.00;;;14.30;99.90;;;;;;5117787;27;20046;-79
2022/06/29 03:00:18;;;;;;;0.00;0.00;;;14.30;99.90;;;;;;5100209;27;20147;-79
2022/06/29 03:02:44;;;;;;;0.00;0.00;;;14.30;99.90;;;;;;5117575;27;20104;-79
2022/06/29 03:05:10;;;;;;;0.00;0.00;;;14.30;99.90;;;;;;5117295;27;20383;-79
2022/06/29 03:07:36;;;;;;;0.00;0.00;;;14.20;99.90;;;;;;5117233;27;20068;-79
2022/06/29 03:10:01;;;;;;;0.00;0.00;;;14.20;99.90;;;;;;5099737;27;20062;-79
2022/06/29 03:12:27;;;;;;;0.00;0.00;;;14.20;99.90;;;;;;5117166;27;20474;-79
2022/06/29 03:14:53;;;;;;;0.00;0.00;;;14.20;99.90;;;;;;5100203;27;20093;-80
2022/06/29 03:17:19;;;;;;;0.45;0.30;;;14.10;99.90;;;;;;5116908;27;20496;-79
2022/06/29 03:19:45;;;;;;;1.75;0.30;;;14.10;99.90;;;;;;5116912;27;20121;-79
2022/06/29 03:22:11;;;;;;;0.00;0.00;;;14.10;99.90;;;;;;5099101;27;20128;-79
2022/06/29 03:24:37;;;;;;;0.00;0.00;;;14.10;99.90;;;;;;5099031;27;20086;-79
2022/06/29 03:27:03;;;;;;;0.00;0.00;;;14.00;99.90;;;;;;5117047;27;20041;-79
2022/06/29 03:29:29;;;;;;;0.00;0.00;;;14.00;99.90;;;;;;5099253;27;20062;-79
2022/06/29 03:32:14;;;;;;;0.00;0.00;;;14.00;99.90;;;;;;5116784;27;20088;-79
2022/06/29 03:34:40;;;;;;;0.00;0.00;;;14.00;99.90;;;;;;5058274;28;20138;-79
2022/06/29 03:37:06;;;;;;;0.00;0.00;;;14.00;99.90;;;;;;5058259;28;20135;-79
2022/06/29 03:39:31;;;;;;;0.00;0.00;;;14.00;99.90;;;;;;5058742;28;20079;-79
2022/06/29 03:41:57;;;;;;;0.00;0.00;;;14.00;99.90;;;;;;5075048;28;20495;-79
2022/06/29 03:44:22;;;;;;;0.00;0.00;;;14.00;99.90;;;;;;5058346;28;20093;-80
2022/06/29 03:46:48;;;;;;;0.15;0.08;;;14.00;99.90;;;;;;5058112;28;20052;-79
2022/06/29 03:49:14;;;;;;;0.00;0.00;;;14.00;99.90;;;;;;5075001;28;20040;-79
2022/06/29 03:51:39;;;;;;;0.00;0.00;;;13.90;99.90;;;;;;5074873;28;20052;-79
2022/06/29 03:54:05;;;;;;;0.00;0.00;;;13.90;99.90;;;;;;5058004;28;20044;-79
2022/06/29 03:56:31;;;;;;;0.00;0.00;;;14.00;99.90;;;;;;5074749;28;20043;-79
2022/06/29 03:58:57;;;;;;;0.00;0.00;;;13.90;99.90;;;;;;5078985;28;20051;-79
2022/06/29 04:01:23;;;;;;;0.00;0.00;;;13.90;99.90;;;;;;5078603;28;20063;-79
2022/06/29 04:03:48;;;;;;;0.00;0.00;;;14.00;99.90;;;;;;5078681;28;20044;-79
2022/06/29 04:06:14;;;;;;;0.00;0.00;;;13.90;99.90;;;;;;5078836;28;20044;-79
2022/06/29 04:08:40;;;;;;;1.55;0.38;;;13.90;99.90;;;;;;5061198;28;20052;-79
2022/06/29 04:11:48;;;;;;;0.00;0.00;;;13.90;99.90;;;;;;5088431;27;20047;-79
2022/06/29 04:13:55;;;;;;;0.00;0.00;;;13.90;99.90;;;;;;5120678;27;20059;-79
2022/06/29 04:16:21;;;;;;;0.00;0.00;;;14.00;99.90;;;;;;5120501;27;20042;-79
2022/06/29 04:18:47;;;;;;;0.00;0.00;;;14.00;99.90;;;;;;5102819;27;20135;-79
2022/06/29 04:21:12;;;;;;;0.00;0.00;;;14.00;99.90;;;;;;5103343;27;20465;-78
2022/06/29 04:23:38;;;;;;;0.00;0.00;;;14.00;99.90;;;;;;5120907;27;20529;-79
2022/06/29 04:26:04;;;;;;;0.00;0.00;;;14.00;99.90;;;;;;5120230;27;20470;-79
2022/06/29 04:28:29;;;;;;;0.32;0.00;;;14.00;99.90;;;;;;5103247;27;20043;-79
2022/06/29 04:30:55;;;;;;;0.00;0.00;;;14.10;99.90;;;;;;5120160;27;20065;-78
2022/06/29 04:33:21;;;;;;;0.00;0.00;;;14.10;99.90;;;;;;5102425;27;20058;-79
2022/06/29 04:35:46;;;;;;;0.00;0.00;;;14.10;99.90;;;;;;5120380;27;20039;-79
2022/06/29 04:38:12;;;;;;;0.00;0.00;;;14.20;99.90;;;;;;5120025;27;20047;-78
2022/06/29 04:40:38;;;;;;;0.00;0.00;;;14.20;99.90;;;;;;5120035;27;20039;-79
2022/06/29 04:43:03;;;;;;;0.05;0.05;;;14.30;99.90;;;;;;5119815;27;20039;-79
2022/06/29 04:48:13;;;;;;;0.17;0.00;;;14.40;99.90;;;;;;5120098;27;20047;-79
2022/06/29 04:50:39;;;;;;;0.00;0.00;;;14.50;99.90;;;;;;5102337;27;20542;-79
2022/06/29 04:53:04;;;;;;;0.00;0.00;;;14.50;99.90;;;;;;5102127;27;20043;-79
2022/06/29 04:55:30;;;;;;;0.00;0.00;;;14.60;99.90;;;;;;5119045;27;20059;-78
2022/06/29 04:57:56;;;;;;;0.00;0.00;;;14.60;99.90;;;;;;5119529;27;20167;-78
2022/06/29 05:00:22;;;;;;;0.00;0.00;;;14.60;99.90;;;;;;5102152;27;20055;-78
2022/06/29 05:02:47;;;;;;;0.00;0.00;;;14.70;99.90;;;;;;5119409;27;20043;-78
2022/06/29 05:05:13;;;;;;;0.00;0.00;;;14.70;99.90;;;;;;5119576;27;20039;-78
2022/06/29 05:07:38;;;;;;;0.00;0.00;;;14.80;99.90;;;;;;5119721;27;20041;-78
2022/06/29 05:10:05;;;;;;;0.00;0.00;;;14.90;99.90;;;;;;5101147;27;20371;-78
2022/06/29 05:12:31;;;;;;;0.00;0.00;;;15.00;99.90;;;;;;5119270;27;20054;-78
2022/06/29 05:14:56;;;;;;;0.00;0.00;;;15.00;99.90;;;;;;5118801;27;20051;-78
2022/06/29 05:17:22;;;;;;;0.00;0.00;;;15.10;99.90;;;;;;5101869;27;20051;-78
2022/06/29 05:19:47;;;;;;;0.00;0.00;;;15.10;99.90;;;;;;5119185;27;20043;-78
2022/06/29 05:22:13;;;;;;;0.00;0.00;;;15.10;99.90;;;;;;5119069;27;20130;-78
2022/06/29 05:24:39;;;;;;;0.00;0.00;;;15.20;99.90;;;;;;5102292;27;20058;-78
2022/06/29 05:27:05;;;;;;;0.00;0.00;;;15.30;99.90;;;;;;5119149;27;20068;-78
2022/06/29 05:29:31;;;;;;;0.00;0.00;;;15.40;99.90;;;;;;5119072;27;20134;-78
2022/06/29 05:31:57;;;;;;;0.00;0.00;;;15.40;99.90;;;;;;5101936;27;20567;-78
2022/06/29 05:34:22;;;;;;;0.00;0.00;;;15.50;99.90;;;;;;5119084;27;20043;-78
2022/06/29 05:36:48;;;;;;;0.00;0.00;;;15.50;99.90;;;;;;5101507;27;20051;-77
2022/06/29 05:39:14;;;;;;;1.60;0.08;;;15.60;99.90;;;;;;5101935;27;20043;-78
2022/06/29 05:41:40;;;;;;;0.00;0.00;;;15.60;99.90;;;;;;5118908;27;20058;-78
2022/06/29 05:44:05;;;;;;;0.00;0.00;;;15.70;99.90;;;;;;5118480;27;20432;-78
2022/06/29 05:46:32;;;;;;;0.00;0.00;;;15.90;99.90;;;;;;5119162;27;20043;-77
2022/06/29 05:48:58;;;;;;;0.00;0.00;;;16.30;99.90;;;;;;5118654;27;20043;-78
2022/06/29 05:51:24;;;;;;;0.00;0.00;;;17.00;99.90;;;;;;5118657;27;20047;-77
2022/06/29 05:53:49;;;;;;;0.00;0.00;;;17.50;99.90;;;;;;5101884;27;20035;-77
2022/06/29 05:56:15;;;;;;;0.00;0.00;;;17.70;99.90;;;;;;5101202;27;20047;-77
2022/06/29 05:58:41;;;;;;;0.00;0.00;;;17.60;99.90;;;;;;5118409;27;20055;-77
2022/06/29 06:01:09;;;;;;;0.00;0.00;;;17.60;99.90;;;;;;5114384;28;20058;-77
2022/06/29 06:03:37;;;;;;;0.65;0.20;;;17.50;99.90;;;;;;5114610;28;20387;-77
2022/06/29 06:06:04;;;;;;;0.00;0.00;;;17.40;99.90;;;;;;5114999;28;20051;-77
2022/06/29 06:08:29;;;;;;;0.00;0.00;;;17.40;99.90;;;;;;5115020;28;20050;-77
2022/06/29 06:10:55;;;;;;;0.00;0.00;;;17.30;99.90;;;;;;5115017;28;20047;-77
2022/06/29 06:13:21;;;;;;;0.00;0.00;;;17.30;99.90;;;;;;5097120;28;20056;-77
2022/06/29 06:15:47;;;;;;;0.00;0.00;;;17.30;99.90;;;;;;5115206;28;20043;-77
2022/06/29 06:18:13;;;;;;;0.00;0.00;;;17.40;99.90;;;;;;5115033;28;20042;-77
2022/06/29 06:20:39;;;;;;;0.00;0.00;;;17.40;99.90;;;;;;5097557;28;20066;-77
2022/06/29 06:23:04;;;;;;;0.00;0.00;;;17.60;99.90;;;;;;5097196;28;20036;-77
2022/06/29 06:25:30;;;;;;;0.10;0.00;;;17.70;99.90;;;;;;5097601;28;20051;-77
2022/06/29 06:27:56;;;;;;;0.00;0.00;;;17.80;99.90;;;;;;5114539;28;20046;-77
2022/06/29 06:30:22;;;;;;;0.00;0.00;;;17.80;99.90;;;;;;5114309;28;20532;-77
2022/06/29 06:32:47;;;;;;;0.00;0.00;;;17.90;99.90;;;;;;5115125;28;20537;-77
2022/06/29 06:35:15;;;;;;;0.90;0.20;;;17.90;99.90;;;;;;5097451;28;20050;-77
2022/06/29 06:37:41;;;;;;;0.00;0.00;;;18.00;99.90;;;;;;5114715;28;20056;-77
2022/06/29 06:42:51;;;;;;;0.00;0.00;;;18.20;99.90;;;;;;5114368;28;20055;-77
2022/06/29 06:45:17;;;;;;;0.10;0.10;;;18.20;99.90;;;;;;5114396;28;20047;-77
2022/06/29 06:47:43;;;;;;;0.00;0.00;;;18.30;99.90;;;;;;5114210;28;20047;-77
2022/06/29 06:50:09;;;;;;;0.00;0.00;;;18.40;99.90;;;;;;5114116;28;20035;-77
2022/06/29 06:52:34;;;;;;;3.33;0.73;;;18.40;99.90;;;;;;5097165;28;20044;-77
2022/06/29 06:55:00;;;;;;;0.00;0.00;;;18.50;99.90;;;;;;5114030;28;20471;-77
2022/06/29 06:57:25;;;;;;;0.00;0.00;;;18.50;99.90;;;;;;5096882;28;20055;-77
2022/06/29 06:59:53;;;;;;;0.03;0.00;;;18.70;99.90;;;;;;5114552;28;20044;-77
2022/06/29 07:02:20;;;;;;;0.47;0.10;;;18.70;99.90;;;;;;5112868;28;20055;-79
2022/06/29 07:04:46;;;;;;;0.00;0.00;;;18.90;99.90;;;;;;5096221;28;20047;-78
2022/06/29 07:07:13;;;;;;;0.00;0.00;;;19.00;99.90;;;;;;5113222;28;20056;-77
2022/06/29 07:09:39;;;;;;;0.00;0.00;;;19.10;99.90;;;;;;5096694;28;20054;-77
2022/06/29 07:12:05;;;;;;;0.00;0.00;;;19.30;99.90;;;;;;5113767;28;20039;-77
2022/06/29 07:14:31;;;;;;;0.00;0.00;;;19.40;99.90;;;;;;5096911;28;20044;-77
2022/06/29 07:16:57;;;;;;;0.00;0.00;;;19.50;99.90;;;;;;5113714;28;20130;-77
2022/06/29 07:19:22;;;;;;;0.00;0.00;;;19.60;99.90;;;;;;5096112;28;20102;-77
2022/06/29 07:21:48;;;;;;;0.00;0.00;;;19.70;99.90;;;;;;5113445;28;20040;-77
2022/06/29 07:24:14;;;;;;;0.00;0.00;;;19.90;99.90;;;;;;5112940;28;20039;-77
2022/06/29 07:26:39;;;;;;;0.00;0.00;;;20.00;99.90;;;;;;5095922;28;20051;-77
2022/06/29 07:29:05;;;;;;;0.00;0.00;;;20.10;99.90;;;;;;5096047;28;20514;-77
2022/06/29 07:31:30;;;;;;;0.00;0.00;;;20.30;99.90;;;;;;5113024;28;20059;-78
2022/06/29 07:33:56;;;;;;;0.10;0.10;;;20.40;99.90;;;;;;5113375;28;20051;-77
2022/06/29 07:36:22;;;;;;;0.32;0.10;;;20.60;99.90;;;;;;5096438;28;20043;-77
2022/06/29 07:38:47;;;;;;;0.00;0.00;;;20.70;99.90;;;;;;5113016;28;20047;-77
2022/06/29 07:41:13;;;;;;;0.00;0.00;;;20.80;99.90;;;;;;5113506;28;20035;-77
2022/06/29 07:43:39;;;;;;;0.00;0.00;;;20.90;99.90;;;;;;5113233;28;20135;-77
2022/06/29 07:46:04;;;;;;;0.10;0.10;;;20.90;99.90;;;;;;5113446;28;20431;-77
2022/06/29 07:48:30;;;;;;;0.00;0.00;;;20.90;99.90;;;;;;5096241;28;20479;-77
2022/06/29 07:50:56;;;;;;;0.00;0.00;;;20.90;99.90;;;;;;5113397;28;20048;-77
2022/06/29 07:53:21;;;;;;;0.00;0.00;;;21.00;99.90;;;;;;5113171;28;20135;-77
2022/06/29 07:55:47;;;;;;;0.00;0.00;;;21.10;99.90;;;;;;5096071;28;20368;-77
2022/06/29 07:58:14;;;;;;;0.30;0.15;;;21.10;99.90;;;;;;5113292;28;20447;-77
2022/06/29 08:00:39;;;;;;;0.00;0.00;;;21.20;99.90;;;;;;5097286;28;20047;-78
2022/06/29 08:03:05;;;;;;;0.10;0.10;;;21.40;99.90;;;;;;5116294;28;20092;-78
2022/06/29 08:05:31;;;;;;;0.40;0.08;;;21.50;99.90;;;;;;5099665;28;20469;-77
2022/06/29 08:07:57;;;;;;;0.00;0.00;;;21.60;99.90;;;;;;5116362;28;20424;-78
2022/06/29 08:10:24;;;;;;;0.00;0.00;;;21.80;99.90;;;;;;5098879;28;20436;-77
2022/06/29 08:12:50;;;;;;;0.00;0.00;;;22.00;99.90;;;;;;5116572;28;20050;-78
2022/06/29 08:15:17;;;;;;;0.00;0.00;;;22.20;99.90;;;;;;5116508;28;20051;-77
2022/06/29 08:17:46;;;;;;;0.22;0.13;;;22.30;99.90;;;;;;5098642;28;20094;-77
2022/06/29 08:20:12;;;;;;;2.05;0.00;;;22.40;99.90;;;;;;5099312;28;20043;-77
2022/06/29 08:22:37;;;;;;;0.00;0.00;;;22.60;99.90;;;;;;5099220;28;20147;-78
2022/06/29 08:25:04;;;;;;;0.00;0.00;;;22.60;99.90;;;;;;5115888;28;20063;-78
2022/06/29 08:27:31;;;;;;;0.00;0.00;;;22.70;98.90;;;;;;5115922;28;20054;-78
2022/06/29 08:29:57;;;;;;;0.00;0.00;;;22.90;98.00;;;;;;5116456;28;20043;-78
2022/06/29 08:32:23;;;;;;;0.00;0.00;;;23.00;97.60;;;;;;5115612;28;20096;-78
2022/06/29 08:34:49;;;;;;;0.00;0.00;;;23.10;97.60;;;;;;5116185;28;20100;-78
2022/06/29 08:37:15;;;;;;;0.00;0.00;;;23.30;96.90;;;;;;5099137;28;20047;-78
2022/06/29 08:39:41;;;;;;;0.00;0.00;;;23.20;95.00;;;;;;5115917;28;20039;-78
2022/06/29 08:42:07;;;;;;;0.00;0.00;;;23.20;94.60;;;;;;5098622;28;20090;-78
2022/06/29 08:44:34;;;;;;;0.00;0.00;;;23.20;93.80;;;;;;5117808;27;20043;-78
2022/06/29 08:47:04;;;;;;;0.00;0.00;;;23.40;91.90;;;;;;5102601;27;20092;-77
2022/06/29 08:49:33;;;;;;;0.00;0.00;;;23.60;92.30;;;;;;5103108;27;20134;-78
2022/06/29 08:52:03;;;;;;;0.00;0.00;;;23.70;91.00;;;;;;5119926;27;20043;-78
2022/06/29 08:54:31;;;;;;;0.00;0.00;;;23.90;91.60;;;;;;5119842;27;20138;-78
2022/06/29 08:56:58;;;;;;;0.00;0.00;;;24.10;90.90;;;;;;5119755;27;20043;-78
2022/06/29 08:59:24;;;;;;;0.00;0.00;;;24.20;94.80;;;;;;5102922;27;20047;-78
2022/06/29 09:01:52;;;;;;;1.88;0.28;;;24.20;90.40;;;;;;5102533;27;20095;-78
2022/06/29 09:04:19;;;;;;;0.00;0.00;;;24.20;90.70;;;;;;5119243;27;20526;-78
2022/06/29 09:06:53;;;;;;;0.22;0.22;;;24.10;90.60;;;;;;5119649;27;20039;-78
2022/06/29 09:09:19;;;;;;;0.00;0.00;;;24.10;90.30;;;;;;5119713;27;20142;-78
2022/06/29 09:11:46;;;;;;;0.00;0.00;;;24.10;90.30;;;;;;5119670;27;20138;-78
2022/06/29 09:14:23;;;;;;;0.00;0.00;;;24.20;94.80;;;;;;5119446;27;20101;-78
2022/06/29 09:16:49;;;;;;;0.00;0.00;;;24.40;93.50;;;;;;5119404;27;20092;-78
2022/06/29 09:19:15;;;;;;;0.00;0.00;;;24.60;92.10;;;;;;5102370;27;20435;-78
2022/06/29 09:21:48;;;;;;;0.00;0.00;;;24.70;94.30;;;;;;5119250;27;20100;-78
2022/06/29 09:24:19;;;;;;;0.00;0.00;;;24.90;92.80;;;;;;5119017;27;20039;-78
2022/06/29 09:26:54;;;;;;;0.00;0.00;;;25.00;94.30;;;;;;5101784;27;20077;-78
2022/06/29 09:29:20;;;;;;;0.00;0.00;;;25.00;92.10;;;;;;5101960;27;20043;-77
2022/06/29 09:32:09;;;;;;;0.00;0.00;;;25.00;94.10;;;;;;5101846;27;20043;-77
2022/06/29 09:34:46;;;;;;;0.28;0.00;;;25.00;94.00;;;;;;5102497;27;20047;-77
2022/06/29 09:37:14;;;;;;;0.00;0.00;;;24.90;91.90;;;;;;5119284;27;20076;-78
2022/06/29 09:39:45;;;;;;;0.00;0.00;;;25.10;91.60;;;;;;5101874;27;20496;-78
2022/06/29 09:42:14;;;;;;;0.00;0.00;;;25.30;92.10;;;;;;5102061;27;20055;-78
2022/06/29 09:44:41;;;;;;;0.00;0.00;;;25.50;90.80;;;;;;5118352;27;20502;-79
2022/06/29 09:47:15;;;;;;;0.00;0.00;;;25.60;91.80;;;;;;5118754;27;20493;-79
2022/06/29 09:49:41;;;;;;;;;;;25.60;91.20;;;;;;5102380;27;20058;-78
2022/06/29 09:52:07;;;;;;;0.00;0.00;;;25.50;91.10;;;;;;5100705;27;19919;-79
2022/06/29 09:54:51;;;;;;;5.07;0.35;;;25.40;89.80;;;;;;5117892;27;20490;-79
2022/06/29 09:57:19;;;;;;;0.00;0.00;;;25.30;90.80;;;;;;5118872;27;20043;-79
2022/06/29 10:02:35;;;;;;;0.00;0.00;;;25.20;91.20;;;;;;5117763;27;20051;-79
2022/06/29 10:05:04;;;;;;;0.05;0.05;;;25.20;92.20;;;;;;5118475;27;20372;-79
2022/06/29 10:07:30;;;;;;;0.00;0.00;;;25.40;90.80;;;;;;5118480;27;20046;-79
2022/06/29 10:10:01;;;;;;;0.00;0.00;;;25.70;93.20;;;;;;5101281;27;20537;-78
2022/06/29 10:15:30;;;;;;;0.00;0.00;;;26.20;90.60;;;;;;5119005;27;20079;-79
2022/06/29 10:18:18;;;;;;;0.00;0.00;;;26.30;91.10;;;;;;5118755;27;20043;-79
2022/06/29 10:20:46;;;;;;;0.00;0.00;;;26.40;90.40;;;;;;5118531;27;20368;-79
2022/06/29 10:23:43;;;;;;;0.00;0.00;;;26.50;91.60;;;;;;5117984;27;20420;-79
2022/06/29 10:26:37;;;;;;;0.00;0.00;;;26.40;90.10;;;;;;5118165;27;20054;-79
2022/06/29 10:29:05;;;;;;;0.00;0.00;;;26.40;89.80;;;;;;5101194;27;20039;-79
2022/06/29 10:31:49;;;;;;;0.00;0.00;;;26.30;90.60;;;;;;5117465;27;20059;-79
2022/06/29 10:34:34;;;;;;;0.00;0.00;;;26.10;85.50;;;;;;5117934;27;20057;-79
2022/06/29 10:37:05;;;;;;;0.00;0.00;;;25.90;89.10;;;;;;5101037;27;20096;-79
2022/06/29 10:39:49;;;;;;;0.00;0.00;;;25.70;87.00;;;;;;5101172;27;20043;-79
2022/06/29 10:45:09;;;;;;;0.00;0.00;;;25.50;91.20;;;;;;5117892;27;20050;-79
2022/06/29 10:47:35;;;;;;;0.00;0.00;;;25.40;87.90;;;;;;5117619;27;20047;-78
2022/06/29 10:50:13;;;;;;;0.10;0.00;;;25.40;86.60;;;;;;5100770;27;20416;-79
2022/06/29 10:52:40;;;;;;;0.00;0.00;;;25.40;87.80;;;;;;5117435;27;20062;-79
2022/06/29 10:55:07;;;;;;;0.00;0.00;;;25.40;89.50;;;;;;5117522;27;20050;-79
2022/06/29 10:57:38;;;;;;;0.08;0.00;;;25.50;90.10;;;;;;5117261;27;20049;-78
2022/06/29 11:00:09;;;;;;;0.00;0.00;;;25.50;86.90;;;;;;5100745;27;20047;-79
2022/06/29 11:02:38;;;;;;;0.00;0.00;;;25.50;85.80;;;;;;5116956;27;20487;-79
2022/06/29 11:05:04;;;;;;;0.00;0.00;;;25.40;88.30;;;;;;5100217;27;20040;-79
2022/06/29 11:12:58;;;;;;;0.00;0.00;;;25.50;86.80;;;;;;5117230;27;20558;-79
2022/06/29 11:15:41;;;;;;;0.00;0.00;;;25.40;84.20;;;;;;5099169;27;20057;-79
2022/06/29 11:18:12;;;;;;;0.00;0.00;;;25.50;86.70;;;;;;5099295;27;20050;-79
2022/06/29 11:20:39;;;;;;;0.00;0.00;;;25.50;86.40;;;;;;5116978;27;20043;-79
2022/06/29 11:23:10;;;;;;;0.00;0.00;;;25.50;84.80;;;;;;5117083;27;20039;-79
2022/06/29 11:25:37;;;;;;;0.00;0.00;;;25.50;87.10;;;;;;5100064;27;20104;-78
2022/06/29 11:28:04;;;;;;;0.00;0.00;;;25.50;87.20;;;;;;5116933;27;20142;-78
2022/06/29 11:30:30;;;;;;;0.00;0.00;;;25.60;85.10;;;;;;5100051;27;20039;-78
2022/06/29 11:32:56;;;;;;;0.00;0.00;;;25.60;88.10;;;;;;5100088;27;20043;-79
2022/06/29 11:35:24;;;;;;;0.00;0.00;;;25.60;85.50;;;;;;5116922;27;20043;-78
2022/06/29 11:38:01;;;;;;;0.10;0.00;;;25.70;85.10;;;;;;5116859;27;20042;-78
2022/06/29 11:40:34;;;;;;;0.00;0.00;;;25.70;86.10;;;;;;5116895;27;20117;-79
2022/06/29 11:43:07;;;;;;;0.03;0.03;;;25.70;85.70;;;;;;5116964;28;20043;-79
2022/06/29 11:45:46;;;;;;;0.00;0.00;;;25.60;85.10;;;;;;5116931;27;20490;-79
2022/06/29 11:48:21;;;;;;;0.00;0.00;;;25.60;86.90;;;;;;5099962;28;20126;-79
2022/06/29 11:50:54;;;;;;;0.00;0.00;;;25.50;85.40;;;;;;5099835;27;20092;-79
2022/06/29 11:53:40;;;;;;;0.00;0.00;;;25.60;83.80;;;;;;5116804;27;20039;-79
2022/06/29 11:56:09;;;;;;;0.00;0.00;;;25.60;85.90;;;;;;5116875;28;20039;-79
2022/06/29 11:58:35;;;;;;;0.00;0.00;;;25.70;88.70;;;;;;5099091;28;20055;-79
2022/06/29 12:01:01;;;;;;;0.00;0.00;;;25.80;89.30;;;;;;5099478;28;20100;-79
2022/06/29 12:03:27;;;;;;;0.00;0.00;;;25.80;88.10;;;;;;5099404;28;20100;-79
2022/06/29 12:06:00;;;;;;;0.00;0.00;;;25.90;88.80;;;;;;5116880;28;20043;-79
2022/06/29 12:08:29;;;;;;;0.00;0.00;;;26.10;87.30;;;;;;5116640;28;20046;-79
2022/06/29 12:10:56;;;;;;;0.00;0.00;;;26.50;89.70;;;;;;5099768;28;20108;-79
2022/06/29 12:13:22;;;;;;;0.00;0.00;;;26.80;86.90;;;;;;5116795;28;20058;-79
2022/06/29 12:15:48;;;;;;;0.00;0.00;;;27.00;84.80;;;;;;5099423;28;20043;-79
2022/06/29 12:18:14;;;;;;;0.00;0.00;;;27.30;84.30;;;;;;5100612;27;20488;-79
2022/06/29 12:20:40;;;;;;;0.00;0.00;;;27.50;78.40;;;;;;5120687;27;20454;-79
2022/06/29 12:23:06;;;;;;;0.00;0.00;;;27.60;79.70;;;;;;5120506;27;20077;-79
2022/06/29 12:25:32;;;;;;;0.00;0.00;;;27.50;75.20;;;;;;5120490;27;20066;-79
2022/06/29 12:27:57;;;;;;;0.00;0.00;;;27.30;75.50;;;;;;5103070;27;20421;-79
2022/06/29 12:30:23;;;;;;;0.03;0.03;;;27.20;78.50;;;;;;5103109;27;20495;-79
2022/06/29 12:32:48;;;;;;;0.00;0.00;;;27.10;76.30;;;;;;5102993;27;20485;-79
2022/06/29 12:35:14;;;;;;;0.00;0.00;;;27.20;78.70;;;;;;5120427;27;20066;-79
2022/06/29 12:37:43;;;;;;;0.00;0.00;;;27.30;78.20;;;;;;5120456;27;20096;-79
2022/06/29 12:40:11;;;;;;;0.20;0.10;;;27.50;78.10;;;;;;5120234;27;20126;-79
2022/06/29 12:42:37;;;;;;;0.00;0.00;;;27.80;75.90;;;;;;5120365;27;20046;-79
2022/06/29 12:45:04;;;;;;;0.00;0.00;;;28.00;77.00;;;;;;5120108;27;20047;-79
2022/06/29 12:47:30;;;;;;;0.03;0.00;;;28.00;78.00;;;;;;5120239;27;20047;-79
2022/06/29 12:49:56;;;;;;;0.00;0.00;;;27.90;75.80;;;;;;5119823;27;20454;-79
2022/06/29 12:52:25;;;;;;;0.00;0.00;;;27.80;75.30;;;;;;5103183;27;20082;-79
2022/06/29 12:54:51;;;;;;;0.03;0.03;;;27.90;76.30;;;;;;5120005;27;20108;-79
2022/06/29 12:57:16;;;;;;;0.00;0.00;;;27.80;73.50;;;;;;5119995;27;20082;-79
2022/06/29 12:59:43;;;;;;;0.00;0.00;;;27.80;74.40;;;;;;5119839;27;20045;-79
2022/06/29 13:02:09;;;;;;;0.00;0.00;;;27.80;73.60;;;;;;5119443;27;20071;-79
2022/06/29 13:04:35;;;;;;;0.00;0.00;;;27.80;73.40;;;;;;5102666;27;20479;-79
2022/06/29 13:07:02;;;;;;;0.00;0.00;;;27.80;71.40;;;;;;5119742;27;20039;-79
2022/06/29 13:09:28;;;;;;;0.00;0.00;;;27.80;71.10;;;;;;5119793;27;20133;-79
2022/06/29 13:11:54;;;;;;;0.60;0.00;;;28.00;73.90;;;;;;5119894;27;20083;-79
2022/06/29 13:14:19;;;;;;;0.03;0.00;;;28.10;74.20;;;;;;5119686;27;20054;-79